McClure, Pennsylvania
Current Conditions -  °F | °C
As of 7:53 PM on Monday 24 Nov 2014 (Local Time) from KSEG Reporting Station
Broken Clouds Broken Clouds  
Wind Chill: 63°   Ceiling: 8500
Heat Index: 63°   Visibility: 10mi
Dew Point: 51°   Wind: 7mph
Humidity: 65%   Direction: 190°S
Pressure: 29.62"   Gusts: NA
Location:  40.71°N, 77.31°W
Report Text: KSEG 250053Z AUTO 19006KT 10SM BKN085 17/11 A2962 RMK AO2 SLP030 T01720106
Loading
Personal Weather Stations






























Interactive Weather Map New forecast layout! Learn more

10-Day Weather Forecast

Advertisements
Track Severe Weather on mobile